Iota, Louisiana
Current Conditions -  °F | °C
As of 2:35 PM on Monday 24 Nov 2014 (Local Time) from K3R7 Reporting Station
Clear Clear  
Wind Chill: 62°   Ceiling: Unl
Heat Index: 62°   Visibility: 10mi
Dew Point: 38°   Wind: 14mph
Humidity: 41%   Direction: 340°NNW
Pressure: 29.97"   Gusts: 17mph
Location:  30.33°N, 92.5°W
Report Text: K3R7 242035Z AUTO 34012G15KT 10SM CLR 17/03 A2997 RMK AO2 T01660032
Loading
Personal Weather Stations






























Interactive Weather Map New forecast layout! Learn more

10-Day Weather Forecast

Advertisements
Track Severe Weather on mobile